Time;durP1;ratioP1;P1;durP2;ratioP2;P2;SDS_P1;SDS_P2;PMS_P1;PMS_P2;Temp;Humidity;BMP_temperature;BMP_pressure;BME280_temperature;BME280_humidity;BME280_pressure;Samples;Min_cycle;Max_cycle;Signal;HPM_P1;HPM_P2
2022/09/10 00:08:07;;;;;;;5.47;0.70;;;14.20;99.90;;;;;;20924890;28;20060;-76
2022/09/10 00:18:09;;;;;;;5.38;0.90;;;14.10;99.90;;;;;;20924487;28;20029;-76
2022/09/10 00:28:09;;;;;;;;;;;13.90;99.90;;;;;;20923658;28;20044;-76
2022/09/10 00:38:12;;;;;;;1.47;0.73;;;13.90;99.90;;;;;;20923280;28;20268;-76
2022/09/10 00:48:16;;;;;;;0.70;0.60;;;14.10;99.90;;;;;;20922221;28;20044;-76
2022/09/10 00:58:19;;;;;;;2.35;0.80;;;14.20;99.90;;;;;;20909168;28;20041;-76
2022/09/10 01:08:21;;;;;;;5.75;0.65;;;14.10;99.90;;;;;;20921275;28;20064;-76
2022/09/10 01:18:38;;;;;;;2.00;0.93;;;14.00;99.90;;;;;;20901140;28;20369;-75
2022/09/10 01:28:48;;;;;;;1.98;0.70;;;14.10;99.90;;;;;;20901610;28;20048;-76
2022/09/10 01:38:50;;;;;;;5.75;1.05;;;14.30;99.90;;;;;;20901367;28;20052;-77
2022/09/10 01:49:07;;;;;;;4.72;1.02;;;14.30;99.90;;;;;;20897733;28;20037;-76
2022/09/10 01:59:17;;;;;;;3.33;0.77;;;14.30;99.90;;;;;;20895630;28;20072;-77
2022/09/10 02:09:18;;;;;;;2.40;0.70;;;14.10;99.90;;;;;;20894032;28;20037;-76
2022/09/10 02:19:20;;;;;;;3.60;0.90;;;13.70;99.90;;;;;;20912402;28;20037;-77
2022/09/10 02:29:24;;;;;;;2.15;0.77;;;13.90;99.90;;;;;;20913218;28;20037;-77
2022/09/10 02:39:25;;;;;;;3.73;0.60;;;14.00;99.90;;;;;;20917916;28;20044;-77
2022/09/10 02:49:27;;;;;;;1.30;0.53;;;14.00;99.90;;;;;;20903617;28;20049;-77
2022/09/10 02:59:31;;;;;;;0.70;0.50;;;13.90;99.90;;;;;;20910066;28;20037;-77
2022/09/10 03:09:34;;;;;;;4.00;0.90;;;13.90;99.90;;;;;;20891749;28;20044;-77
2022/09/10 03:19:35;;;;;;;3.50;0.60;;;14.00;99.90;;;;;;20890349;28;20431;-77
2022/09/10 03:29:36;;;;;;;2.63;0.60;;;13.90;99.90;;;;;;20894480;28;20044;-77
2022/09/10 03:39:37;;;;;;;2.40;0.80;;;13.90;99.90;;;;;;20907450;28;20628;-77
2022/09/10 03:49:38;;;;;;;3.90;0.67;;;13.90;99.90;;;;;;20889423;28;20037;-76
2022/09/10 03:59:40;;;;;;;;;;;14.00;99.90;;;;;;20888801;28;20128;-77
2022/09/10 04:09:43;;;;;;;2.95;0.60;;;14.10;99.90;;;;;;20890874;28;19913;-77
2022/09/10 04:19:44;;;;;;;3.08;1.33;;;14.10;99.90;;;;;;20926722;28;20041;-77
2022/09/10 04:29:45;;;;;;;0.70;0.50;;;14.10;99.90;;;;;;20917216;28;20043;-77
2022/09/10 04:39:46;;;;;;;2.80;0.90;;;14.10;99.90;;;;;;20920337;28;20061;-77
2022/09/10 04:49:47;;;;;;;;;;;14.10;99.90;;;;;;20920438;28;20132;-77
2022/09/10 04:59:49;;;;;;;2.53;1.17;;;14.00;99.90;;;;;;20911778;28;19948;-77
2022/09/10 05:09:50;;;;;;;1.97;0.80;;;14.00;99.90;;;;;;20906473;28;20044;-77
2022/09/10 05:19:52;;;;;;;2.90;1.00;;;14.00;99.90;;;;;;20902576;28;20037;-77
2022/09/10 05:29:54;;;;;;;8.60;2.75;;;14.00;99.90;;;;;;20907628;28;20068;-77
2022/09/10 05:39:55;;;;;;;6.20;2.78;;;14.00;99.90;;;;;;20914840;28;20499;-77
2022/09/10 05:49:56;;;;;;;4.20;1.00;;;14.10;99.90;;;;;;20915400;28;20072;-77
2022/09/10 05:59:58;;;;;;;;;;;14.20;99.90;;;;;;20891761;28;20120;-76
2022/09/10 06:09:59;;;;;;;1.80;1.25;;;14.30;99.90;;;;;;20875592;28;19916;-77
2022/09/10 06:20:11;;;;;;;5.38;1.38;;;14.30;99.90;;;;;;20954481;28;20127;-77
2022/09/10 06:30:14;;;;;;;5.93;1.45;;;14.40;99.90;;;;;;20942261;28;20041;-78
2022/09/10 06:40:19;;;;;;;8.80;1.77;;;14.40;99.90;;;;;;20906061;28;20033;-78
2022/09/10 06:50:21;;;;;;;2.78;1.20;;;14.40;99.90;;;;;;20918934;28;20041;-79
2022/09/10 07:00:24;;;;;;;7.57;1.70;;;14.50;99.90;;;;;;20897313;28;20041;-78
2022/09/10 07:10:30;;;;;;;4.30;1.70;;;14.70;99.90;;;;;;20950228;28;20037;-78
2022/09/10 07:20:31;;;;;;;4.30;1.58;;;14.80;99.90;;;;;;20943517;28;20040;-77
2022/09/10 07:30:34;;;;;;;6.03;2.17;;;15.30;99.90;;;;;;20907848;28;20065;-78
2022/09/10 07:40:36;;;;;;;3.75;1.58;;;15.50;99.90;;;;;;20906504;28;20426;-76
2022/09/10 07:50:37;;;;;;;7.43;1.70;;;15.40;99.90;;;;;;20930068;28;20028;-77
2022/09/10 08:00:38;;;;;;;14.52;3.88;;;15.30;99.90;;;;;;20952347;28;20064;-76
2022/09/10 08:10:42;;;;;;;6.68;1.35;;;15.50;99.90;;;;;;20941416;28;20036;-76
2022/09/10 08:20:43;;;;;;;9.30;1.53;;;15.70;99.90;;;;;;20968173;28;20048;-77
2022/09/10 08:31:03;;;;;;;3.67;1.00;;;15.80;99.90;;;;;;20991456;28;20071;-78
2022/09/10 08:41:20;;;;;;;5.03;0.90;;;16.10;99.90;;;;;;20951607;28;20041;-78
2022/09/10 08:51:45;;;;;;;3.58;1.00;;;16.50;99.90;;;;;;20910865;28;20102;-79
2022/09/10 09:01:58;;;;;;;6.90;1.17;;;16.70;99.90;;;;;;20909609;28;20041;-78
2022/09/10 09:12:34;;;;;;;11.80;1.48;;;16.60;99.90;;;;;;20893816;28;20033;-78
2022/09/10 09:23:13;;;;;;;4.63;1.35;;;16.40;99.90;;;;;;20922444;28;20045;-78
2022/09/10 09:33:19;;;;;;;6.50;0.73;;;16.60;99.90;;;;;;20496501;29;20063;-77
2022/09/10 09:43:45;;;;;;;4.50;0.77;;;16.00;99.90;;;;;;20494745;28;20121;-77
2022/09/10 09:53:52;;;;;;;6.28;1.00;;;15.80;99.90;;;;;;20509575;28;20503;-76
2022/09/10 10:04:01;;;;;;;5.32;0.88;;;16.90;99.90;;;;;;20667322;28;20134;-78
2022/09/10 10:14:12;;;;;;;7.10;0.80;;;18.00;99.90;;;;;;20962649;28;20037;-78
2022/09/10 10:24:32;;;;;;;10.65;3.70;;;18.20;99.90;;;;;;20957759;28;20036;-78
2022/09/10 10:35:28;;;;;;;16.35;4.32;;;19.50;99.90;;;;;;20953408;28;20033;-77
2022/09/10 10:45:35;;;;;;;1.67;0.57;;;18.80;99.90;;;;;;20787946;28;20047;-78
2022/09/10 10:55:42;;;;;;;4.57;2.08;;;18.90;99.90;;;;;;20921570;28;20056;-78
2022/09/10 11:05:52;;;;;;;4.35;0.63;;;18.90;99.90;;;;;;20935747;28;20045;-76
2022/09/10 11:16:00;;;;;;;4.30;0.50;;;20.50;99.90;;;;;;20928835;28;20052;-78
2022/09/10 11:26:23;;;;;;;8.05;0.70;;;20.50;99.90;;;;;;20925908;28;20041;-78
2022/09/10 11:36:40;;;;;;;3.83;0.50;;;20.30;99.90;;;;;;20927549;28;20048;-78
2022/09/10 11:46:59;;;;;;;2.50;0.50;;;19.10;99.90;;;;;;20929279;28;20476;-78
2022/09/10 11:57:37;;;;;;;5.28;0.73;;;19.20;99.90;;;;;;21010594;28;20445;-77
2022/09/10 12:08:04;;;;;;;3.88;0.82;;;19.30;99.90;;;;;;21009147;28;20070;-78
2022/09/10 12:18:16;;;;;;;3.83;0.60;;;21.00;99.90;;;;;;21002912;28;20033;-78
2022/09/10 12:28:44;;;;;;;2.95;0.63;;;20.80;99.90;;;;;;21013172;28;20044;-78
2022/09/10 12:39:03;;;;;;;2.95;1.25;;;21.50;99.90;;;;;;21017845;28;20399;-78
2022/09/10 12:49:09;;;;;;;1.70;0.40;;;22.30;99.90;;;;;;21032510;28;20036;-78
2022/09/10 12:59:29;;;;;;;3.33;1.10;;;20.90;99.90;;;;;;21018525;28;20403;-77
2022/09/10 13:09:35;;;;;;;3.15;0.65;;;20.40;99.90;;;;;;21004118;28;20502;-77
2022/09/10 13:19:42;;;;;;;9.43;2.78;;;19.70;99.90;;;;;;21003833;28;20041;-76
2022/09/10 13:29:48;;;;;;;3.85;0.60;;;20.00;99.90;;;;;;21013454;28;20060;-76
2022/09/10 13:40:39;;;;;;;2.17;0.50;;;20.50;99.90;;;;;;21022310;28;20051;-76
2022/09/10 13:50:55;;;;;;;6.32;0.60;;;21.20;99.90;;;;;;20764865;28;20094;-77
2022/09/10 14:00:59;;;;;;;2.80;0.45;;;20.80;99.90;;;;;;21014167;28;20044;-77
2022/09/10 14:11:18;;;;;;;1.83;0.50;;;21.30;99.90;;;;;;21008765;28;20463;-78
2022/09/10 14:21:25;;;;;;;3.45;0.50;;;20.30;99.90;;;;;;21001820;28;20032;-77
2022/09/10 14:31:26;;;;;;;1.05;0.50;;;19.50;99.90;;;;;;20981237;28;20036;-77
2022/09/10 14:41:29;;;;;;;2.97;0.47;;;19.40;99.90;;;;;;20996582;28;20064;-76
2022/09/10 14:51:30;;;;;;;1.05;0.20;;;18.70;99.90;;;;;;20995838;28;20044;-77
2022/09/10 15:01:31;;;;;;;2.33;0.23;;;19.10;99.90;;;;;;21002533;28;20117;-77
2022/09/10 15:11:33;;;;;;;4.70;0.50;;;18.80;99.90;;;;;;20996834;28;20045;-77
2022/09/10 15:21:34;;;;;;;1.25;0.47;;;18.20;99.90;;;;;;20994754;28;20189;-77
2022/09/10 15:31:35;;;;;;;2.37;0.33;;;17.90;99.90;;;;;;21002397;28;20044;-78
2022/09/10 15:41:40;;;;;;;4.63;0.37;;;18.50;99.90;;;;;;20994503;28;20123;-76
2022/09/10 15:51:41;;;;;;;2.28;0.43;;;19.30;99.90;;;;;;20991574;28;20155;-77
2022/09/10 16:01:42;;;;;;;2.50;0.60;;;18.50;99.90;;;;;;21000711;28;20037;-76
2022/09/10 16:11:44;;;;;;;1.97;0.40;;;18.10;99.90;;;;;;20996001;28;20051;-77
2022/09/10 16:21:45;;;;;;;0.75;0.30;;;17.80;99.90;;;;;;21013667;28;20037;-77
2022/09/10 16:31:45;;;;;;;3.40;0.30;;;17.90;99.90;;;;;;21005783;28;20487;-76
2022/09/10 16:41:48;;;;;;;2.37;0.53;;;17.80;99.90;;;;;;21003120;28;20040;-76
2022/09/10 16:51:49;;;;;;;1.05;0.40;;;17.40;99.90;;;;;;20996543;28;20068;-76
2022/09/10 17:01:51;;;;;;;2.67;0.60;;;17.40;99.90;;;;;;20895642;28;20047;-76
2022/09/10 17:11:52;;;;;;;4.47;0.52;;;16.90;99.90;;;;;;20920215;28;20040;-75
2022/09/10 17:21:54;;;;;;;6.03;1.20;;;16.50;99.90;;;;;;20921182;28;20043;-76
2022/09/10 17:31:56;;;;;;;5.00;0.57;;;16.60;99.90;;;;;;20915369;28;20037;-77
2022/09/10 17:41:57;;;;;;;2.33;0.63;;;16.30;99.90;;;;;;20915830;28;20041;-76
2022/09/10 17:51:59;;;;;;;;;;;16.20;99.90;;;;;;20915107;28;20045;-77
2022/09/10 18:02:00;;;;;;;4.10;1.00;;;16.00;99.90;;;;;;20913544;28;20038;-77
2022/09/10 18:12:02;;;;;;;5.57;1.00;;;15.80;99.90;;;;;;20912765;28;20041;-76
2022/09/10 18:22:03;;;;;;;;;;;15.80;99.90;;;;;;20910831;28;20033;-76
2022/09/10 18:32:04;;;;;;;7.90;1.10;;;15.60;99.90;;;;;;20910624;28;19913;-76
2022/09/10 18:42:05;;;;;;;6.27;1.23;;;15.60;99.90;;;;;;20909622;28;20102;-76
2022/09/10 18:52:08;;;;;;;1.80;0.80;;;15.50;99.90;;;;;;20912316;28;20051;-77
2022/09/10 19:02:11;;;;;;;4.43;1.00;;;15.40;99.90;;;;;;20916522;28;20052;-76
2022/09/10 19:12:12;;;;;;;6.15;0.82;;;15.40;99.90;;;;;;20912834;28;20048;-77
2022/09/10 19:22:15;;;;;;;3.77;0.90;;;15.30;99.90;;;;;;20908298;28;20041;-77
2022/09/10 19:32:18;;;;;;;2.35;1.00;;;15.30;99.90;;;;;;20907372;28;20503;-77
2022/09/10 19:42:19;;;;;;;6.68;1.30;;;15.10;99.90;;;;;;20906998;28;20399;-77
2022/09/10 19:52:20;;;;;;;5.37;1.30;;;15.00;99.90;;;;;;20921788;28;20057;-77
2022/09/10 20:02:21;;;;;;;6.88;1.33;;;14.90;99.90;;;;;;20933128;28;20036;-77
2022/09/10 20:12:23;;;;;;;5.60;1.90;;;14.90;99.90;;;;;;20922327;28;20048;-76
2022/09/10 20:22:23;;;;;;;8.82;1.88;;;14.80;99.90;;;;;;20921164;28;20043;-77
2022/09/10 20:32:24;;;;;;;4.83;1.53;;;14.70;99.90;;;;;;20925050;28;20048;-76
2022/09/10 20:42:26;;;;;;;3.00;1.47;;;14.60;99.90;;;;;;20901524;28;20127;-76
2022/09/10 20:52:27;;;;;;;5.65;1.83;;;14.40;99.90;;;;;;20958300;28;20033;-76
2022/09/10 21:02:28;;;;;;;5.77;1.57;;;14.40;99.90;;;;;;20935038;28;20400;-77
2022/09/10 21:12:29;;;;;;;4.90;2.03;;;14.20;99.90;;;;;;20922073;28;20059;-76
2022/09/10 21:22:29;;;;;;;5.57;2.30;;;14.10;99.90;;;;;;20958344;28;20071;-77
2022/09/10 21:32:30;;;;;;;8.90;2.93;;;14.00;99.90;;;;;;20958102;28;20486;-77
2022/09/10 21:42:31;;;;;;;12.90;3.10;;;13.90;99.90;;;;;;20956651;28;20547;-76
2022/09/10 21:52:32;;;;;;;12.10;2.83;;;13.80;99.90;;;;;;20956061;28;20037;-77
2022/09/10 22:02:34;;;;;;;6.57;1.80;;;13.80;99.90;;;;;;20954368;28;20037;-77
2022/09/10 22:12:35;;;;;;;12.50;4.20;;;13.60;99.90;;;;;;20947460;28;20068;-76
2022/09/10 22:22:36;;;;;;;4.13;1.70;;;13.60;99.90;;;;;;20912916;28;20041;-76
2022/09/10 22:32:38;;;;;;;9.00;3.13;;;13.60;99.90;;;;;;20911475;28;20328;-77
2022/09/10 22:42:39;;;;;;;3.80;2.13;;;13.50;99.90;;;;;;20913960;28;20095;-76
2022/09/10 22:52:42;;;;;;;13.77;2.03;;;13.50;99.90;;;;;;20928582;28;20124;-76
2022/09/10 23:02:45;;;;;;;6.43;2.25;;;13.20;99.90;;;;;;20908459;28;20049;-76
2022/09/10 23:12:45;;;;;;;2.17;1.67;;;12.90;99.90;;;;;;20913427;28;20071;-76
2022/09/10 23:22:50;;;;;;;4.53;2.37;;;12.80;99.90;;;;;;20913519;28;20033;-77
2022/09/10 23:32:52;;;;;;;6.35;2.00;;;12.80;99.90;;;;;;20915949;28;20095;-77
2022/09/10 23:42:53;;;;;;;5.78;1.88;;;12.90;99.90;;;;;;20916840;28;20086;-77
2022/09/10 23:52:54;;;;;;;2.70;1.30;;;12.90;99.90;;;;;;20911573;28;20072;-77
